Avoca, Wisconsin
Current Conditions -  °F | °C
As of 4:56 AM on Friday 28 Nov 2014 (Local Time) from KLNR Reporting Station
Light Snow Light Snow  
Wind Chill: 10°   Ceiling: 3500
Heat Index: 18°   Visibility: 4mi
Dew Point: 10°   Wind: 6mph
Humidity: 71%   Direction: 110°ESE
Pressure: 30.25"   Gusts: NA
Location:  43.18°N, 90.32°W
Report Text: KLNR 281056Z AUTO 11005KT 4SM -SN OVC035 M08/M12 A3025 RMK AO2 SLP250 P0000 T10781122
Loading
Personal Weather Stations






























Interactive Weather Map New forecast layout! Learn more

10-Day Weather Forecast

Advertisements
Track Severe Weather on mobile